Terminal Aerodrome Forecast
Issued by NWS Nashville, TN

Home | Current Version | Previous Version | Text Only | Print | Product List | Glossary On
Versions: 1 2 3 4 5 6 7 8 9 10 11 12 13 14 15 16 17 18 19 20 21 22 23 24 25 26 27 28 29 30 31 32 33 34
000
FTUS44 KOHX 262320
TAFCSV
TAF
KCSV 262320Z 2700/2724 25007KT P6SM BKN040 OVC045
     FM271300 23006KT P6SM BKN030
     FM271700 24008KT P6SM BKN009
     FM272100 26008KT P6SM VCTS SCT025CB BKN050=

USA.gov is the U.S. government's official web portal to all federal, state and local government web resources and services.